Erdogan Senkaya — TCAB3 — position and weather

sailwx.info

Track history (hours):
 
Tides and Currents Weather Stations Pressure Air Temp Water Temp Dewpoint Dewpoint Depression Visibility Wind Speed Wind Dir Waves Ship Positions

Erdogan Senkaya

Last reported at 2018-Jun-18 14:38 UTC. Time now 2018-Jun-19 10:44 UTC.
Position N 35°46' W 000°35'.

Length 68 m; draft 3.6 m.

Type: Cargo ship. MMSI: 271002242.

Date/timePositionNaut miles runAvg speedWind from/ knotsBaromVisibWave heightAir tempDewpointWater temp
2018-Jun-18 14:38N 35°46' W 000°35'0 0.0
2018-Jun-18 00:26N 35°46' W 000°35'0 0.0
2018-Jun-17 18:50N 35°46' W 000°35'1 0.5
2018-Jun-17 16:22N 35°45' W 000°36'3 2.0
2018-Jun-17 14:43N 35°43' W 000°38'0 0.0
2018-Jun-17 14:22N 35°43' W 000°38'0 0.0
2018-Jun-17 13:19N 35°43' W 000°38'0 0.0
2018-Jun-17 12:55N 35°43' W 000°38'0 0.0
2018-Jun-15 19:34N 35°43' W 000°38'0 0.1
2018-Jun-15 19:28N 35°43' W 000°38'0 0.0
2018-Jun-15 18:57N 35°43' W 000°38'0 0.0
2018-Jun-15 18:03N 35°43' W 000°38'0 0.0
2018-Jun-15 17:57N 35°43' W 000°38'0 0.0
2018-Jun-15 17:20N 35°43' W 000°38'0 0.0
2018-Jun-15 16:44N 35°43' W 000°38'0 0.0
2018-Jun-15 16:26N 35°43' W 000°38'0 0.0
2018-Jun-15 15:59N 35°43' W 000°38'0 0.0
2018-Jun-15 15:29N 35°43' W 000°38'0 0.0
2018-Jun-15 13:59N 35°43' W 000°38'0 0.0
2018-Jun-15 13:29N 35°43' W 000°38'0 0.0
2018-Jun-15 08:06N 35°43' W 000°38'0 0.0
2018-Jun-15 07:54N 35°43' W 000°38'0 0.0
2018-Jun-15 05:38N 35°43' W 000°38'0 0.1
2018-Jun-15 05:30N 35°43' W 000°38'0 0.0
2018-Jun-14 22:11N 35°43' W 000°38'0 0.0
2018-Jun-14 21:33N 35°43' W 000°38'0 0.0
2018-Jun-14 21:21N 35°43' W 000°38'0 0.0
2018-Jun-14 20:57N 35°43' W 000°38'0 0.0
2018-Jun-14 20:20N 35°43' W 000°38'0 0.0
2018-Jun-13 22:45N 35°43' W 000°38'0 0.6
2018-Jun-13 22:20N 35°43' W 000°38'2 1.8
2018-Jun-13 21:23N 35°45' W 000°38'0 0.1
2018-Jun-13 20:44N 35°44' W 000°38'0 0.0
2018-Jun-13 20:26N 35°44' W 000°38'0 0.0
2018-Jun-13 17:26N 35°44' W 000°38'0 0.0
2018-Jun-13 16:56N 35°44' W 000°38'0 0.0
2018-Jun-13 16:20N 35°44' W 000°38'0 0.0
2018-Jun-13 15:56N 35°44' W 000°38'125 2.6
2018-Jun-11 16:44N 36°42' E 001°40'2 7.3
2018-Jun-11 16:30N 36°42' E 001°42'25 7.8
2018-Jun-11 13:17N 36°46' E 002°13'2 7.8
2018-Jun-11 13:00N 36°47' E 002°15'  
2018-Jun-09 02:49N 38°17' E 012°48'3 7.4
2018-Jun-09 02:27N 38°17' E 012°51'4 7.4
2018-Jun-09 01:59N 38°17' E 012°56'3 7.3
2018-Jun-09 01:30N 38°18' E 013°00'4 7.3
2018-Jun-09 01:00N 38°18' E 013°05'4 7.3
2018-Jun-09 00:30N 38°18' E 013°09'4 7.4
2018-Jun-09 00:00N 38°18' E 013°14'4 7.8
2018-Jun-08 23:30N 38°19' E 013°19'4 7.9
2018-Jun-08 23:00N 38°19' E 013°24'4 8.4
2018-Jun-08 22:30N 38°18' E 013°29'4 8.4
2018-Jun-08 21:59N 38°17' E 013°35'  
Track history (hours):
 
Tides and Currents Weather Stations Pressure Air Temp Water Temp Dewpoint Dewpoint Depression Visibility Wind Speed Wind Dir Waves Ship Positions

Erdogan Senkaya

Last reported at 2018-Jun-18 14:38 UTC. Time now 2018-Jun-19 10:44 UTC.
Position N 35°46' W 000°35'.

Length 68 m; draft 3.6 m.

Type: Cargo ship. MMSI: 271002242.

Date/timePositionNaut miles runAvg speedWind from/ knotsBaromVisibWave heightAir tempDewpointWater temp
2018-Jun-18 14:38N 35°46' W 000°35'0 0.0
2018-Jun-18 00:26N 35°46' W 000°35'0 0.0
2018-Jun-17 18:50N 35°46' W 000°35'1 0.5
2018-Jun-17 16:22N 35°45' W 000°36'3 2.0
2018-Jun-17 14:43N 35°43' W 000°38'0 0.0
2018-Jun-17 14:22N 35°43' W 000°38'0 0.0
2018-Jun-17 13:19N 35°43' W 000°38'0 0.0
2018-Jun-17 12:55N 35°43' W 000°38'0 0.0
2018-Jun-15 19:34N 35°43' W 000°38'0 0.1
2018-Jun-15 19:28N 35°43' W 000°38'0 0.0
2018-Jun-15 18:57N 35°43' W 000°38'0 0.0
2018-Jun-15 18:03N 35°43' W 000°38'0 0.0
2018-Jun-15 17:57N 35°43' W 000°38'0 0.0
2018-Jun-15 17:20N 35°43' W 000°38'0 0.0
2018-Jun-15 16:44N 35°43' W 000°38'0 0.0
2018-Jun-15 16:26N 35°43' W 000°38'0 0.0
2018-Jun-15 15:59N 35°43' W 000°38'0 0.0
2018-Jun-15 15:29N 35°43' W 000°38'0 0.0
2018-Jun-15 13:59N 35°43' W 000°38'0 0.0
2018-Jun-15 13:29N 35°43' W 000°38'0 0.0
2018-Jun-15 08:06N 35°43' W 000°38'0 0.0
2018-Jun-15 07:54N 35°43' W 000°38'0 0.0
2018-Jun-15 05:38N 35°43' W 000°38'0 0.1
2018-Jun-15 05:30N 35°43' W 000°38'0 0.0
2018-Jun-14 22:11N 35°43' W 000°38'0 0.0
2018-Jun-14 21:33N 35°43' W 000°38'0 0.0
2018-Jun-14 21:21N 35°43' W 000°38'0 0.0
2018-Jun-14 20:57N 35°43' W 000°38'0 0.0
2018-Jun-14 20:20N 35°43' W 000°38'0 0.0
2018-Jun-13 22:45N 35°43' W 000°38'0 0.6
2018-Jun-13 22:20N 35°43' W 000°38'2 1.8
2018-Jun-13 21:23N 35°45' W 000°38'0 0.1
2018-Jun-13 20:44N 35°44' W 000°38'0 0.0
2018-Jun-13 20:26N 35°44' W 000°38'0 0.0
2018-Jun-13 17:26N 35°44' W 000°38'0 0.0
2018-Jun-13 16:56N 35°44' W 000°38'0 0.0
2018-Jun-13 16:20N 35°44' W 000°38'0 0.0
2018-Jun-13 15:56N 35°44' W 000°38'125 2.6
2018-Jun-11 16:44N 36°42' E 001°40'2 7.3
2018-Jun-11 16:30N 36°42' E 001°42'25 7.8
2018-Jun-11 13:17N 36°46' E 002°13'2 7.8
2018-Jun-11 13:00N 36°47' E 002°15'  
2018-Jun-09 02:49N 38°17' E 012°48'3 7.4
2018-Jun-09 02:27N 38°17' E 012°51'4 7.4
2018-Jun-09 01:59N 38°17' E 012°56'3 7.3
2018-Jun-09 01:30N 38°18' E 013°00'4 7.3
2018-Jun-09 01:00N 38°18' E 013°05'4 7.3
2018-Jun-09 00:30N 38°18' E 013°09'4 7.4
2018-Jun-09 00:00N 38°18' E 013°14'4 7.8
2018-Jun-08 23:30N 38°19' E 013°19'4 7.9
2018-Jun-08 23:00N 38°19' E 013°24'4 8.4
2018-Jun-08 22:30N 38°18' E 013°29'4 8.4
2018-Jun-08 21:59N 38°17' E 013°35'  

Dump ship's entire track history